Pireps
You are here: Olympic Virtual Pireps

Flight OLY931

  • Submitted By: Stavros Sarikas
  • Departure Airport: Thessaloniki Macedonia International Airport (LGTS)
  • Arrival Airport: Dimokritos Airport (LGAL)
  • Aircraft: A320-200 (SX-OAR)
  • Flight Time: 00.49
  • Date Submitted: 15/04/2018
  • Route: TSL G12 IDILO
  • Status: Accepted
Flight Details
Gross Revenue:
(119 load / € 50.00 per unit
€ 5, 950.00
Fuel Cost:
(1747 fuel used @ 0.19 / unit)
€ 331.93

Additional Log Information:

View Log

Aircraft Used in flight is Airbus A320 British Airways G-EUUU
16:15 Boarding
16:15 Navigation Lights ON at 40 Feet
16:15 Beacon Lights ON at 40 Feet
16:15 Brakes are On
16:17 Engine 2 Started
16:18 Engine 1 Started
16:20 Flaps 3 Selected at 40ft and 0kts
16:21 Brakes are Released
16:23 Pushing back
16:24 Taxi Lights ON at 40 Feet
16:25 Landing Lights ON at 40 AGL
16:25 Strobe Lights ON at 40 Feet
16:28 You Took off @ 134 Knots and Flaps at Position 3 With a heading of 284 Degrees
Departure Weather LGTS 151250Z 20010KT 9999 FEW025 22/11 Q1020 NOSIG
Departure Coordinates 40.5193947088662/ 22.9723248116575
Takeoff Weight=58633KG Fuel Weight=3791KG
16:28 Landing Gear Up @ 147 Knots and 100 Feet
16:28 Taxi Lights OFF at 120 Feet
16:29 Flaps 2 Selected at 1390ft and 157kts
16:29 Flaps 0 Selected at 1590ft and 183kts
16:30 Below 10000 feet you are not allowed to go over 250 knots
16:31 You exceeded maximum bank angle
16:32 Above FL100 you need to switch of the landing lights
16:33 Landing Lights OFF at 10400 AGL
16:38 TOC Reached
16:52 Landing Lights ON at 9820 AGL
16:59 Flaps 1 Selected at 1120ft and 248kts
16:59 Flaps 3 Selected at 400ft and 227kts
17:01 Landing Gear Down @ 158 Knots and 1210 Feet
17:01 Flaps 4 Selected at 1210ft and 158kts
17:01 Flaps 5 Selected at 1220ft and 158kts
17:04 You Landed @ 133 Knots with -250 Vertical Speed With a heading of 74 and with 0.9872 G Force
Arrival Weather: LGAL 151350Z 04015KT 9999 SCT030 21/10 Q1020
Arrival Coordinates 40.8553452886344/ 25.9506785517998
Landing Weight=57126KG Fuel Weight=2282KG
17:04 Airplane Bounced
17:04 Taxiing to gate
17:04 Paused
17:04 Taxi Lights ON at 40 Feet
17:04 Landing Lights OFF at 40 AGL
17:04 Brakes are On
17:04 Strobe Lights OFF at 40 Feet
17:04 Flaps 0 Selected at 40ft and 0kts
17:04 Unpaused
Pirep logged with OA Virtual Tracking 1.0.2.6

Route Map